Latest Coastal Weather Observations for Wilsons Promontory

IDV60701

Issued at 8:51 pm EST Saturday 25 April 2015 (issued every 10 minutes, with the page automatically refreshed every 10 minutes)

About coastal observations | Map of coastal stations | Coastal observations for VIC | Marine services | Other Formats
Station Details ID: 085096 Name: WILSONS PROMONTORY LIGHTHOUSE Lat: -39.13 Lon: 146.42 Height: 95.0 m
Data from the previous 72 hours. | See also: Recent months at Wilsons Promontory
Date/Time
EST
Temp

°C
Wind Pressure Rain
since 9am
mm
Weather Cloud Vis
km
Sea
Height
m
Swell
Dir
 
Speed
knots
Gust
knots
hPa Trend Height
m
Period
s
Dir
25/08:30pm 14.6 SE 8 9 1010.4 - 4.8 - - - - - - -
25/08:00pm 14.5 SE 10 12 1010.1 - 4.8 - - - - - - -
25/07:30pm 14.6 W 7 9 1009.9 - 4.8 - - - - - - -
25/07:00pm 14.6 W 8 11 1009.6 - 4.8 - - - - - - -
25/06:30pm 14.3 WNW 9 11 1009.4 - 4.8 - - - - - - -
25/06:00pm 14.2 WNW 8 10 1008.9 - 4.8 - - - - - - -
25/05:30pm 14.6 W 8 11 1008.5 - 4.8 - - - - - - -
25/05:00pm 14.9 W 9 13 1008.3 - 4.8 - - - - - - -
25/04:30pm 15.0 W 9 14 1008.1 - 4.8 - - - - - - -
25/04:00pm 15.3 W 9 13 1007.8 - 4.8 - - - - - - -
25/03:30pm 15.5 W 10 14 1007.7 - 4.8 - - - - - - -
25/03:00pm 15.5 W 8 13 1007.4 - 4.8 - - - - - - -
25/02:30pm 15.2 WSW 9 13 1007.3 - 4.8 - - - - - - -
25/02:00pm 15.2 W 9 14 1007.3 - 4.8 - - - - - - -
25/01:30pm 15.1 W 8 12 1007.3 - 4.8 - - - - - - -
25/01:00pm 15.1 W 9 13 1007.3 - 4.8 - - - - - - -
25/12:30pm 15.0 W 9 13 1007.4 - 4.8 - - - - - - -
25/12:00pm 14.5 W 7 11 1007.6 - 4.8 - - - - - - -
25/11:30am 14.4 WNW 6 9 1007.6 - 3.8 - - - - - - -
25/11:00am 14.2 W 10 15 1007.6 - 2.0 - - - - - - -
25/10:30am 15.1 NW 7 15 1007.5 - 0.0 - - - - - - -
25/10:00am 14.9 W 13 17 1007.4 - 0.0 - - - - - - -
25/09:30am 15.0 WNW 11 18 1007.0 - 0.0 - - - - - - -
25/09:00am 14.6 WNW 14 18 1006.6 - 2.0 - - - - - - -
25/08:30am 14.4 NW 8 13 1006.7 - 2.0 - - - - - - -
25/08:00am 14.2 NW 10 16 1006.3 - 2.0 - - - - - - -
25/07:30am 13.9 NW 10 15 1006.0 - 2.0 - - - - - - -
25/07:00am 13.8 NW 7 11 1005.8 - 2.0 - - - - - - -
25/06:30am 13.6 NW 10 19 1005.6 - 2.0 - - - - - - -
25/06:00am 13.7 WNW 13 22 1005.1 - 1.6 - - - - - - -
25/05:30am 13.8 WNW 11 18 1005.3 - 1.0 - - - - - - -
25/05:00am 13.9 NW 12 17 1004.9 - 1.0 - - - - - - -
25/04:30am 14.8 W 8 13 1004.7 - 1.0 - - - - - - -
25/04:00am 14.4 WNW 13 17 1004.6 - 1.0 - - - - - - -
25/03:30am 14.3 WNW 15 20 1004.6 - 1.0 - - - - - - -
25/03:00am 14.0 WNW 14 18 1004.5 - 1.0 - - - - - - -
25/02:30am 14.2 WNW 12 17 1005.0 - 0.8 - - - - - - -
25/02:00am 14.5 W 11 17 1005.0 - 0.8 - - - - - - -
25/01:30am 14.5 W 11 19 1004.6 - 0.8 - - - - - - -
25/01:00am 14.6 W 11 18 1004.5 - 0.8 - - - - - - -
25/12:30am 14.6 W 10 14 1004.5 - 0.8 - - - - - - -
25/12:00am 14.6 WNW 13 16 1004.3 - 0.8 - - - - - - -
 
Date/Time
EST
Temp

°C
Wind Pressure Rain
since 9am
mm
Weather Cloud Vis
km
Sea
Height
m
Swell
Dir
 
Speed
knots
Gust
knots
hPa Trend Height
m
Period
s
Dir
24/11:30pm 14.3 WNW 11 16 1004.4 - 0.8 - - - - - - -
24/11:00pm 14.5 W 10 13 1004.3 - 0.8 - - - - - - -
24/10:30pm 14.5 W 10 15 1004.4 - 0.8 - - - - - - -
24/10:00pm 14.7 W 12 17 1004.3 - 0.8 - - - - - - -
24/09:30pm 15.4 W 11 15 1004.1 - 0.2 - - - - - - -
24/09:00pm 15.6 WSW 7 12 1004.1 - 0.0 - - - - - - -
24/08:30pm 15.4 WSW 8 13 1003.9 - 0.0 - - - - - - -
24/08:00pm 15.6 W 12 17 1003.4 - 0.0 - - - - - - -
24/07:30pm 15.7 W 14 22 1003.2 - 0.0 - - - - - - -
24/07:00pm 15.7 W 16 27 1002.8 - 0.0 - - - - - - -
24/06:30pm 15.8 W 21 33 1002.3 - 0.0 - - - - - - -
24/06:00pm 15.8 W 25 36 1001.4 - 0.0 - - - - - - -
24/05:30pm 15.8 W 20 33 1001.1 - 0.0 - - - - - - -
24/05:00pm 16.1 W 20 34 1001.2 - 0.0 - - - - - - -
24/04:30pm 16.2 W 19 31 1001.2 - 0.0 - - - - - - -
24/04:00pm 16.3 W 18 32 1001.2 - 0.0 - - - - - - -
24/03:33pm 16.4 W 17 31 1001.2 - 0.0 - - - - - - -
24/03:30pm 16.4 W 16 23 1001.3 - 0.0 - - - - - - -
24/03:03pm 16.7 W 15 25 1001.5 - 0.0 - - - - - - -
24/03:00pm 16.7 W 17 26 1001.3 - 0.0 - - - - - - -
24/02:46pm 17.1 W 15 30 1001.1 - 0.0 - - - - - - -
24/02:30pm 17.1 W 12 21 1001.3 - 0.0 - - - - - - -
24/02:00pm 16.8 WSW 14 26 1001.3 - 0.0 - - - - - - -
24/01:49pm 17.1 WNW 16 27 1001.4 - 0.0 - - - - - - -
24/01:30pm 16.9 W 10 19 1001.5 - 0.0 - - - - - - -
24/01:00pm 16.9 SE 6 11 1001.9 - 0.0 - - - - - - -
24/12:30pm 16.2 ENE 2 6 1002.2 - 0.0 - - - - - - -
24/12:00pm 15.6 SSW 4 13 1002.6 - 0.0 - - - - - - -
24/11:30am 15.1 N 4 9 1003.2 - 0.0 - - - - - - -
24/11:06am 15.0 WNW 15 25 1003.3 - 0.0 - - - - - - -
24/11:00am 15.1 WNW 17 25 1003.1 - 0.0 - - - - - - -
24/10:58am 15.2 W 17 25 1003.1 - 0.0 - - - - - - -
24/10:30am 15.5 W 4 9 1003.6 - 0.0 - - - - - - -
24/10:00am 15.7 N 1 3 1003.8 - 0.0 - - - - - - -
24/09:30am 15.7 N 4 5 1004.0 - 0.0 - - - - - - -
24/09:00am 15.6 NNE 6 7 1004.1 - 1.0 - - - - - - -
24/08:30am 15.5 ENE 8 10 1004.3 - 0.8 - - - - - - -
24/08:00am 15.5 E 9 10 1004.4 - 0.8 - - - - - - -
24/07:30am 15.4 E 10 12 1004.1 - 0.8 - - - - - - -
24/07:00am 15.3 E 9 11 1004.1 - 0.8 - - - - - - -
24/06:30am 15.3 ENE 9 11 1004.2 - 0.6 - - - - - - -
24/06:00am 15.2 ENE 9 11 1004.2 - 0.6 - - - - - - -
24/05:30am 15.2 ENE 8 10 1004.6 - 0.4 - - - - - - -
24/05:00am 15.1 ENE 10 13 1004.7 - 0.2 - - - - - - -
24/04:30am 15.2 ENE 12 15 1004.9 - 0.0 - - - - - - -
24/04:00am 15.1 ENE 14 17 1004.9 - 0.0 - - - - - - -
24/03:30am 15.0 ENE 12 14 1005.5 - 0.0 - - - - - - -
24/03:00am 14.9 ENE 13 15 1005.8 - 0.0 - - - - - - -
24/02:30am 14.9 ENE 13 15 1006.5 - 0.0 - - - - - - -
24/02:00am 15.0 ENE 12 14 1007.0 - 0.0 - - - - - - -
24/01:30am 14.9 ENE 12 14 1007.6 - 0.0 - - - - - - -
24/01:00am 14.9 ENE 11 14 1008.2 - 0.0 - - - - - - -
24/12:30am 14.9 ENE 13 15 1008.7 - 0.0 - - - - - - -
24/12:00am 15.0 ENE 12 13 1009.1 - 0.0 - - - - - - -
 
Date/Time
EST
Temp

°C
Wind Pressure Rain
since 9am
mm
Weather Cloud Vis
km
Sea
Height
m
Swell
Dir
 
Speed
knots
Gust
knots
hPa Trend Height
m
Period
s
Dir
23/11:30pm 15.1 E 15 16 1009.5 - 0.0 - - - - - - -
23/11:00pm 15.0 E 14 16 1010.0 - 0.0 - - - - - - -
23/10:30pm 15.1 E 16 19 1010.4 - 0.0 - - - - - - -
23/10:00pm 15.1 E 16 18 1010.7 - 0.0 - - - - - - -
23/09:30pm 15.0 E 16 18 1011.1 - 0.0 - - - - - - -
23/09:00pm 15.2 E 17 19 1011.6 - 0.0 - - - - - - -
23/08:30pm 15.3 E 13 15 1012.1 - 0.0 - - - - - - -
23/08:00pm 15.3 E 16 19 1012.3 - 0.0 - - - - - - -
23/07:30pm 15.5 E 16 18 1012.4 - 0.0 - - - - - - -
23/07:00pm 15.5 E 17 20 1012.7 - 0.0 - - - - - - -
23/06:30pm 15.5 E 17 19 1012.9 - 0.0 - - - - - - -
23/06:00pm 15.5 E 18 19 1012.8 - 0.0 - - - - - - -
23/05:30pm 15.4 E 18 21 1012.9 - 0.0 - - - - - - -
23/05:00pm 15.6 E 16 19 1013.0 - 0.0 - - - - - - -
23/04:30pm 15.6 E 14 16 1013.4 - 0.0 - - - - - - -
23/04:00pm 15.5 E 14 17 1013.7 - 0.0 - - - - - - -
23/03:30pm 15.7 E 16 18 1013.8 - 0.0 - - - - - - -
23/03:00pm 15.6 E 14 17 1014.0 - 0.0 - - - - - - -
23/02:30pm 15.7 E 14 16 1014.7 - 0.0 - - - - - - -
23/02:00pm 15.8 E 14 16 1015.1 - 0.0 - - - - - - -
23/01:30pm 15.7 E 12 15 1015.4 - 0.0 - - - - - - -
23/01:00pm 15.5 ESE 11 15 1015.9 - 0.0 - - - - - - -
23/12:30pm 15.3 E 15 19 1016.6 - 0.0 - - - - - - -
23/12:00pm 15.6 E 16 19 1017.3 - 0.0 - - - - - - -
23/11:30am 15.9 E 14 16 1018.0 - 0.0 - - - - - - -
23/11:00am 15.6 E 16 19 1018.4 - 0.0 - - - - - - -
23/10:30am 15.9 E 15 18 1018.6 - 0.0 - - - - - - -
23/10:00am 15.6 E 16 18 1018.7 - 0.0 - - - - - - -
23/09:30am 15.3 E 18 21 1018.9 - 0.0 - - - - - - -
23/09:00am 15.0 E 15 19 1019.2 - 0.6 - - - - - - -
23/08:30am 15.2 E 16 20 1019.2 - 0.6 - - - - - - -
23/08:00am 14.8 ESE 16 19 1019.5 - 0.6 - - - - - - -
23/07:30am 14.9 ESE 16 19 1019.7 - 0.6 - - - - - - -
23/07:00am 14.8 ESE 13 15 1019.7 - 0.6 - - - - - - -
23/06:30am 14.6 ESE 12 15 1019.6 - 0.6 - - - - - - -
23/06:00am 14.4 ESE 14 18 1019.5 - 0.6 - - - - - - -
23/05:30am 14.9 ESE 15 18 1019.7 - 0.6 - - - - - - -
23/05:00am 14.1 ESE 10 16 1019.8 - 0.6 - - - - - - -
23/04:30am 13.5 SE 17 22 1019.9 - 0.6 - - - - - - -
23/04:00am 13.8 SE 13 17 1019.9 - 0.6 - - - - - - -
23/03:30am 14.6 ESE 13 18 1020.0 - 0.6 - - - - - - -
23/03:00am 14.5 ESE 15 19 1020.0 - 0.6 - - - - - - -
23/02:30am 14.7 ESE 17 19 1020.4 - 0.6 - - - - - - -
23/02:00am 14.6 ESE 17 21 1020.8 - 0.6 - - - - - - -
23/01:30am 14.5 ESE 18 22 1021.1 - 0.6 - - - - - - -
23/01:00am 15.0 ESE 15 20 1021.2 - 0.4 - - - - - - -
23/12:30am 14.6 E 16 19 1021.4 - 0.4 - - - - - - -
23/12:00am 14.6 ESE 17 19 1021.8 - 0.4 - - - - - - -
 
Date/Time
EST
Temp

°C
Wind Pressure Rain
since 9am
mm
Weather Cloud Vis
km
Sea
Height
m
Swell
Dir
 
Speed
knots
Gust
knots
hPa Trend Height
m
Period
s
Dir
22/11:30pm 14.2 E 21 25 1022.2 - 0.4 - - - - - - -
22/11:00pm 14.4 E 17 24 1022.6 - 0.4 - - - - - - -
22/10:30pm 14.7 E 19 23 1022.9 - 0.4 - - - - - - -
22/10:00pm 14.7 E 20 23 1023.0 - 0.4 - - - - - - -
22/09:30pm 15.7 ESE 18 20 1023.2 - 0.4 - - - - - - -
22/09:00pm 15.4 ESE 16 20 1023.0 - 0.4 - - - - - - -

Other Formats:

Comma delimited format used in spreadsheet applications
http://www.bom.gov.au/fwo/IDV60701/IDV60701.94893.axf

JavaScript Object Notation format (JSON) in row-major order
http://www.bom.gov.au/fwo/IDV60701/IDV60701.94893.json